Terminal Aerodrome Forecast
Issued by NWS

Home | Current Version | Previous Version | Text Only | Print | Product List | Glossary On
Versions: 1 2 3 4 5 6 7 8 9 10 11 12 13 14 15 16 17 18 19 20 21 22 23 24
000
FTUS44 KMAF 262040 AAA
TAFHOB
TAF AMD
KHOB 262040Z 2621/2718 04015KT P6SM SCT010 OVC025
      TEMPO 2621/2624 3SM TSRA BR OVC010CB
     FM270000 03015KT 5SM RA BR OVC005=

USA.gov is the U.S. government's official web portal to all federal, state and local government web resources and services.